Time;durP1;ratioP1;P1;durP2;ratioP2;P2;SDS_P1;SDS_P2;PMS_P1;PMS_P2;Temp;Humidity;BMP_temperature;BMP_pressure;BME280_temperature;BME280_humidity;BME280_pressure;Samples;Min_cycle;Max_cycle;Signal;HPM_P1;HPM_P2
2023/09/03 00:01:26;;;;;;;8.40;5.68;;;14.10;99.90;;;;;;4972396;28;21257;-65
2023/09/03 00:03:53;;;;;;;11.80;5.60;;;14.10;99.90;;;;;;4951471;28;21086;-65
2023/09/03 00:06:19;;;;;;;8.07;5.00;;;14.10;99.90;;;;;;4987390;28;20226;-66
2023/09/03 00:08:48;;;;;;;8.43;5.47;;;14.10;99.90;;;;;;5000195;28;20541;-65
2023/09/03 00:11:15;;;;;;;7.05;5.40;;;14.00;99.90;;;;;;4985776;28;20238;-65
2023/09/03 00:13:42;;;;;;;7.55;5.63;;;14.00;99.90;;;;;;4983512;28;20602;-65
2023/09/03 00:16:11;;;;;;;8.05;4.78;;;14.00;99.90;;;;;;4992240;28;20480;-65
2023/09/03 00:18:37;;;;;;;7.43;5.03;;;14.10;99.90;;;;;;4953659;28;20872;-65
2023/09/03 00:21:05;;;;;;;9.38;5.40;;;14.10;99.90;;;;;;4991562;28;20206;-65
2023/09/03 00:23:33;;;;;;;8.10;5.40;;;14.10;99.90;;;;;;4991260;28;20281;-65
2023/09/03 00:26:00;;;;;;;6.47;4.97;;;14.10;99.90;;;;;;4960818;28;20509;-65
2023/09/03 00:28:27;;;;;;;8.38;5.15;;;13.90;99.90;;;;;;4993310;28;20540;-65
2023/09/03 00:31:02;;;;;;;6.30;4.90;;;13.90;99.90;;;;;;4970322;28;20229;-65
2023/09/03 00:33:30;;;;;;;6.28;4.95;;;14.00;99.90;;;;;;4977191;28;20304;-66
2023/09/03 00:35:57;;;;;;;5.93;5.00;;;14.10;99.90;;;;;;4974188;28;20640;-65
2023/09/03 00:38:24;;;;;;;8.50;5.28;;;13.90;99.90;;;;;;4996180;28;20201;-65
2023/09/03 00:40:51;;;;;;;5.18;4.47;;;13.90;99.90;;;;;;4981381;28;20226;-65
2023/09/03 00:43:18;;;;;;;7.95;5.32;;;14.10;99.90;;;;;;4987887;28;20296;-65
2023/09/03 00:45:46;;;;;;;8.57;4.85;;;13.90;99.90;;;;;;4971421;28;20218;-66
2023/09/03 00:48:15;;;;;;;7.00;5.28;;;13.80;99.90;;;;;;4985470;28;20732;-65
2023/09/03 00:50:44;;;;;;;10.07;5.32;;;13.60;99.90;;;;;;4952689;28;20211;-65
2023/09/03 00:53:11;;;;;;;5.97;4.55;;;13.60;99.90;;;;;;4995872;28;20368;-65
2023/09/03 00:55:38;;;;;;;6.28;4.82;;;;;;;;;;4991962;28;20349;-65
2023/09/03 00:58:06;;;;;;;7.05;4.90;;;13.50;99.90;;;;;;5005931;28;20190;-66
2023/09/03 01:00:34;;;;;;;6.88;5.05;;;13.70;99.90;;;;;;4988362;28;20227;-66
2023/09/03 01:03:01;;;;;;;9.25;5.05;;;13.50;99.90;;;;;;4990505;28;20209;-65
2023/09/03 01:05:28;;;;;;;7.07;5.32;;;13.50;99.90;;;;;;4985258;28;20210;-65
2023/09/03 01:07:58;;;;;;;6.72;5.07;;;12.70;99.90;;;;;;4977327;28;20194;-65
2023/09/03 01:10:32;;;;;;;6.43;4.55;;;13.50;99.90;;;;;;5001543;28;20875;-65
2023/09/03 01:13:07;;;;;;;4.82;4.32;;;13.40;99.90;;;;;;5001130;28;20226;-65
2023/09/03 01:15:39;;;;;;;6.43;4.75;;;13.50;99.90;;;;;;4987116;28;20202;-65
2023/09/03 01:18:14;;;;;;;7.80;5.65;;;13.50;99.90;;;;;;4994148;28;20982;-65
2023/09/03 01:20:45;;;;;;;11.52;5.72;;;13.50;99.90;;;;;;4988967;28;20213;-65
2023/09/03 01:23:33;;;;;;;9.57;6.00;;;13.80;99.90;;;;;;4964381;28;20214;-66
2023/09/03 01:26:18;;;;;;;6.18;5.38;;;13.40;99.90;;;;;;5000655;28;20206;-65
2023/09/03 01:28:47;;;;;;;10.48;6.20;;;13.40;99.90;;;;;;5001143;28;20206;-65
2023/09/03 01:31:17;;;;;;;6.57;5.63;;;13.50;99.90;;;;;;4985103;28;20202;-65
2023/09/03 01:33:45;;;;;;;7.63;5.97;;;13.50;99.90;;;;;;4990096;28;20230;-66
2023/09/03 01:36:14;;;;;;;9.75;4.90;;;13.50;99.90;;;;;;4996055;28;20224;-65
2023/09/03 01:38:41;;;;;;;6.65;5.50;;;13.60;99.90;;;;;;4971191;28;20236;-65
2023/09/03 01:41:08;;;;;;;9.02;5.60;;;13.60;99.90;;;;;;5003038;28;20779;-65
2023/09/03 01:43:35;;;;;;;7.72;5.88;;;13.60;99.90;;;;;;5000323;28;20889;-65
2023/09/03 01:46:07;;;;;;;6.40;5.22;;;14.50;99.90;;;;;;4990669;28;20688;-65
2023/09/03 01:49:00;;;;;;;6.50;5.60;;;13.50;99.90;;;;;;5003702;28;20206;-65
2023/09/03 01:51:36;;;;;;;7.57;5.10;;;13.50;99.90;;;;;;4992272;28;20284;-65
2023/09/03 01:54:09;;;;;;;8.90;5.80;;;13.60;99.90;;;;;;4968024;28;20218;-65
2023/09/03 01:56:42;;;;;;;8.57;5.45;;;13.50;99.90;;;;;;4998168;28;22184;-65
2023/09/03 01:59:17;;;;;;;6.63;5.35;;;13.50;99.90;;;;;;4999395;28;20222;-65
2023/09/03 02:01:46;;;;;;;6.30;5.00;;;12.40;99.90;;;;;;4991838;28;20213;-65
2023/09/03 02:04:13;;;;;;;7.40;5.97;;;13.40;99.90;;;;;;4999185;28;20209;-65
2023/09/03 02:06:40;;;;;;;9.15;4.90;;;13.40;99.90;;;;;;4994884;28;20225;-66
2023/09/03 02:09:06;;;;;;;5.70;5.10;;;13.00;99.90;;;;;;4963086;28;20231;-66
2023/09/03 02:11:33;;;;;;;5.32;4.82;;;13.40;99.90;;;;;;5002060;28;20198;-65
2023/09/03 02:14:00;;;;;;;7.20;5.85;;;13.50;99.90;;;;;;5002806;28;20201;-65
2023/09/03 02:16:27;;;;;;;6.50;5.35;;;13.50;99.90;;;;;;4996302;28;20205;-65
2023/09/03 02:18:55;;;;;;;7.68;4.95;;;13.50;99.90;;;;;;4992247;28;20202;-65
2023/09/03 02:21:22;;;;;;;7.00;5.60;;;13.50;99.90;;;;;;4986942;28;20199;-65
2023/09/03 02:23:48;;;;;;;7.10;5.20;;;13.50;99.90;;;;;;4966575;28;21711;-65
2023/09/03 02:26:15;;;;;;;10.63;5.60;;;13.50;99.90;;;;;;4996014;28;20202;-65
2023/09/03 02:28:42;;;;;;;7.65;5.53;;;13.40;99.90;;;;;;4997360;28;20210;-65
2023/09/03 02:31:09;;;;;;;6.65;5.85;;;13.50;99.90;;;;;;4997298;28;20213;-65
2023/09/03 02:33:35;;;;;;;5.55;4.97;;;13.50;99.90;;;;;;4989750;28;20229;-65
2023/09/03 02:36:04;;;;;;;8.75;5.75;;;13.30;99.90;;;;;;4997081;28;20202;-66
2023/09/03 02:38:31;;;;;;;10.77;5.50;;;13.50;99.90;;;;;;4963475;28;20630;-65
2023/09/03 02:40:57;;;;;;;7.25;4.95;;;13.40;99.90;;;;;;4993967;28;20210;-66
2023/09/03 02:43:24;;;;;;;6.10;5.10;;;13.40;99.90;;;;;;4997797;28;20214;-66
2023/09/03 02:45:52;;;;;;;7.25;5.38;;;13.30;99.90;;;;;;4999596;28;20716;-65
2023/09/03 02:48:19;;;;;;;11.00;4.78;;;13.20;99.90;;;;;;4988590;28;20294;-65
2023/09/03 02:50:47;;;;;;;7.57;5.53;;;13.30;99.90;;;;;;4998396;28;20198;-65
2023/09/03 02:53:15;;;;;;;6.70;4.90;;;13.30;99.90;;;;;;4960488;28;20226;-65
2023/09/03 02:55:42;;;;;;;7.80;5.45;;;13.20;99.90;;;;;;5000993;28;20198;-65
2023/09/03 02:58:09;;;;;;;8.68;4.90;;;13.20;99.90;;;;;;4989048;28;20206;-65
2023/09/03 03:00:35;;;;;;;5.82;4.95;;;13.20;99.90;;;;;;5003392;28;20222;-65
2023/09/03 03:03:02;;;;;;;6.40;5.20;;;13.20;99.90;;;;;;4979650;28;20707;-66
2023/09/03 03:05:29;;;;;;;6.95;5.00;;;13.30;99.90;;;;;;5002438;28;20195;-65
2023/09/03 03:07:58;;;;;;;5.53;4.72;;;13.10;99.90;;;;;;4971052;28;20206;-65
2023/09/03 03:10:26;;;;;;;5.93;4.85;;;13.10;99.90;;;;;;4983330;28;20211;-65
2023/09/03 03:12:53;;;;;;;4.70;4.28;;;13.10;99.90;;;;;;4996128;28;20605;-65
2023/09/03 03:15:20;;;;;;;7.35;4.38;;;13.20;99.90;;;;;;5000837;28;20209;-66
2023/09/03 03:17:47;;;;;;;5.20;4.68;;;13.20;99.90;;;;;;4985897;28;20206;-65
2023/09/03 03:20:14;;;;;;;5.30;4.80;;;13.20;99.90;;;;;;4987084;28;20628;-65
2023/09/03 03:22:40;;;;;;;7.97;4.93;;;13.20;99.90;;;;;;4999730;28;20199;-66
2023/09/03 03:25:08;;;;;;;7.47;4.82;;;13.20;99.90;;;;;;4952946;28;20214;-65
2023/09/03 03:27:37;;;;;;;7.03;4.97;;;13.20;99.90;;;;;;4998386;28;20202;-66
2023/09/03 03:30:05;;;;;;;5.75;5.05;;;13.30;99.90;;;;;;4993535;28;20672;-66
2023/09/03 03:32:32;;;;;;;5.38;4.05;;;13.30;99.90;;;;;;4993440;28;20226;-65
2023/09/03 03:34:59;;;;;;;5.07;4.45;;;13.30;99.90;;;;;;4990477;28;20206;-65
2023/09/03 03:37:26;;;;;;;4.93;4.38;;;13.30;99.90;;;;;;5006356;28;20222;-65
2023/09/03 03:39:52;;;;;;;6.85;4.55;;;13.00;99.90;;;;;;4978012;28;20207;-65
2023/09/03 03:42:19;;;;;;;4.10;3.55;;;13.00;99.90;;;;;;4988923;28;20754;-65
2023/09/03 03:44:47;;;;;;;6.38;3.95;;;12.90;99.90;;;;;;5009529;28;20213;-65
2023/09/03 03:47:14;;;;;;;6.50;4.40;;;12.70;99.90;;;;;;4995040;28;20838;-65
2023/09/03 03:49:41;;;;;;;4.63;4.18;;;12.60;99.90;;;;;;4991104;28;20217;-65
2023/09/03 03:52:08;;;;;;;5.45;4.20;;;12.60;99.90;;;;;;4999870;28;20213;-65
2023/09/03 03:54:36;;;;;;;5.32;3.90;;;12.60;99.90;;;;;;4999893;28;20305;-65
2023/09/03 03:57:03;;;;;;;5.13;4.03;;;12.70;99.90;;;;;;4961602;28;20215;-65
2023/09/03 03:59:29;;;;;;;5.32;4.30;;;12.70;99.90;;;;;;5002574;28;20312;-65
2023/09/03 04:01:58;;;;;;;4.43;4.03;;;12.70;99.90;;;;;;4986932;28;20233;-65
2023/09/03 04:04:24;;;;;;;5.10;4.05;;;12.60;99.90;;;;;;4986241;28;20344;-65
2023/09/03 04:06:51;;;;;;;4.72;4.22;;;12.60;99.90;;;;;;5006540;28;20667;-65
2023/09/03 04:09:18;;;;;;;5.07;3.90;;;12.60;99.90;;;;;;4996621;28;20222;-66
2023/09/03 04:11:47;;;;;;;5.00;4.25;;;12.60;99.90;;;;;;4965661;28;20215;-65
2023/09/03 04:14:14;;;;;;;5.13;4.00;;;12.50;99.90;;;;;;4993070;28;20252;-66
2023/09/03 04:16:41;;;;;;;5.43;3.90;;;;;;;;;;4998527;28;20202;-65
2023/09/03 04:19:09;;;;;;;5.22;4.28;;;12.80;99.90;;;;;;4989163;28;20206;-65
2023/09/03 04:21:36;;;;;;;6.32;4.10;;;12.40;99.90;;;;;;4988471;28;20305;-65
2023/09/03 04:24:03;;;;;;;5.85;4.13;;;;;;;;;;4996508;28;20199;-65
2023/09/03 04:26:30;;;;;;;5.15;4.28;;;12.60;99.90;;;;;;4966083;28;20218;-65
2023/09/03 04:28:57;;;;;;;7.80;4.30;;;12.50;99.90;;;;;;4999196;28;20202;-65
2023/09/03 04:31:24;;;;;;;6.97;4.20;;;12.60;99.90;;;;;;4999917;28;20194;-65
2023/09/03 04:33:51;;;;;;;4.60;4.20;;;12.60;99.90;;;;;;4989263;28;20241;-65
2023/09/03 04:36:19;;;;;;;7.40;4.70;;;12.70;99.90;;;;;;4991552;28;20245;-65
2023/09/03 04:38:46;;;;;;;7.47;4.40;;;12.70;99.90;;;;;;4991752;28;20220;-65
2023/09/03 04:41:13;;;;;;;8.70;4.50;;;12.60;99.90;;;;;;4950836;28;20214;-65
2023/09/03 04:43:44;;;;;;;8.02;4.82;;;12.80;99.90;;;;;;5002564;28;20236;-65
2023/09/03 04:46:11;;;;;;;5.35;4.78;;;12.80;99.90;;;;;;5002396;28;20202;-65
2023/09/03 04:48:38;;;;;;;6.35;5.40;;;12.70;99.90;;;;;;4993737;28;20214;-65
2023/09/03 04:51:06;;;;;;;7.43;5.07;;;12.80;99.90;;;;;;4990577;28;20549;-65
2023/09/03 04:53:34;;;;;;;8.05;5.22;;;12.90;99.90;;;;;;4996837;28;20229;-65
2023/09/03 04:56:02;;;;;;;6.97;5.10;;;13.00;99.90;;;;;;4967527;28;20206;-65
2023/09/03 04:58:28;;;;;;;6.88;5.72;;;12.90;99.90;;;;;;5004836;28;20263;-65
2023/09/03 05:00:55;;;;;;;6.85;5.28;;;13.10;99.90;;;;;;4996079;28;20218;-65
2023/09/03 05:03:22;;;;;;;8.70;5.47;;;13.10;99.90;;;;;;4992378;28;20505;-65
2023/09/03 05:05:49;;;;;;;8.30;5.40;;;13.20;99.90;;;;;;4999473;28;20997;-65
2023/09/03 05:08:15;;;;;;;8.35;4.80;;;13.20;99.90;;;;;;4983118;28;20574;-66
2023/09/03 05:10:44;;;;;;;5.68;4.80;;;13.20;99.90;;;;;;4960341;28;20688;-66
2023/09/03 05:13:10;;;;;;;8.48;4.85;;;13.10;99.90;;;;;;5002639;28;20234;-65
2023/09/03 05:15:37;;;;;;;7.93;5.30;;;12.90;99.90;;;;;;4998973;28;20194;-66
2023/09/03 05:18:04;;;;;;;6.95;5.32;;;13.20;99.90;;;;;;5001241;28;20202;-65
2023/09/03 05:20:32;;;;;;;6.00;4.93;;;13.20;99.90;;;;;;4988938;28;21494;-65
2023/09/03 05:22:58;;;;;;;9.23;5.10;;;13.20;99.90;;;;;;4992274;28;20210;-65
2023/09/03 05:25:26;;;;;;;10.13;5.55;;;13.50;99.90;;;;;;4965437;28;20226;-65
2023/09/03 05:27:54;;;;;;;8.63;5.85;;;13.30;99.90;;;;;;4994896;28;20245;-66
2023/09/03 05:30:22;;;;;;;9.02;5.80;;;13.40;99.90;;;;;;5002015;28;20207;-66
2023/09/03 05:32:49;;;;;;;9.18;5.60;;;13.30;99.90;;;;;;4994167;28;24492;-65
2023/09/03 05:35:16;;;;;;;7.95;5.53;;;13.40;99.90;;;;;;4992250;28;20587;-65
2023/09/03 05:37:42;;;;;;;8.02;5.97;;;13.50;99.90;;;;;;4992337;28;20671;-65
2023/09/03 05:40:11;;;;;;;7.07;5.72;;;13.40;99.90;;;;;;4975077;28;20328;-66
2023/09/03 05:42:37;;;;;;;6.90;5.63;;;13.40;99.90;;;;;;4961692;28;20225;-66
2023/09/03 05:45:07;;;;;;;6.88;5.25;;;13.40;99.90;;;;;;5003003;28;20210;-65
2023/09/03 05:47:34;;;;;;;8.43;5.63;;;13.60;99.90;;;;;;4984883;28;20229;-65
2023/09/03 05:50:01;;;;;;;6.20;5.32;;;13.60;99.90;;;;;;4997855;28;20210;-65
2023/09/03 05:52:28;;;;;;;8.15;6.22;;;13.50;99.90;;;;;;4987742;28;20210;-66
2023/09/03 05:54:55;;;;;;;7.15;5.90;;;13.60;99.90;;;;;;5004384;28;20586;-65
2023/09/03 05:57:22;;;;;;;8.13;6.07;;;13.60;99.90;;;;;;4965464;28;20221;-65
2023/09/03 05:59:50;;;;;;;7.30;5.90;;;13.70;99.90;;;;;;5001002;28;20205;-65
2023/09/03 06:02:19;;;;;;;8.77;5.80;;;13.70;99.90;;;;;;4996029;28;20210;-65
2023/09/03 06:04:46;;;;;;;10.07;5.63;;;13.80;99.90;;;;;;5005933;28;20210;-66
2023/09/03 06:07:13;;;;;;;7.65;6.03;;;13.80;99.90;;;;;;4999651;28;20652;-66
2023/09/03 06:09:40;;;;;;;9.27;6.15;;;13.90;99.90;;;;;;4988231;28;20280;-65
2023/09/03 06:12:07;;;;;;;8.35;6.07;;;13.90;99.90;;;;;;4967804;28;20293;-65
2023/09/03 06:14:34;;;;;;;6.82;5.53;;;13.90;99.90;;;;;;5002409;28;20237;-65
2023/09/03 06:17:02;;;;;;;6.72;5.47;;;14.10;99.90;;;;;;4995163;28;20348;-65
2023/09/03 06:19:30;;;;;;;6.20;5.43;;;14.20;99.90;;;;;;4997705;28;20333;-66
2023/09/03 06:21:57;;;;;;;8.20;5.22;;;14.20;99.90;;;;;;4996548;28;20206;-66
2023/09/03 06:24:24;;;;;;;9.40;5.90;;;14.20;99.90;;;;;;4989452;28;20225;-66
2023/09/03 06:26:51;;;;;;;10.18;6.32;;;14.20;99.90;;;;;;4999765;28;20202;-66
2023/09/03 06:29:18;;;;;;;7.40;5.47;;;14.20;99.90;;;;;;4962899;28;20210;-66
2023/09/03 06:31:44;;;;;;;6.32;5.57;;;14.30;99.90;;;;;;5004852;28;20190;-65
2023/09/03 06:34:11;;;;;;;8.15;6.03;;;14.40;99.90;;;;;;4995923;28;20234;-65
2023/09/03 06:36:39;;;;;;;6.75;5.20;;;14.30;99.90;;;;;;5002322;28;20344;-65
2023/09/03 06:39:07;;;;;;;8.07;5.40;;;14.30;99.90;;;;;;5001724;28;20202;-65
2023/09/03 06:41:33;;;;;;;6.22;4.85;;;14.40;99.90;;;;;;4992759;28;20206;-65
2023/09/03 06:44:00;;;;;;;9.32;5.13;;;14.30;99.90;;;;;;4961609;28;20206;-66
2023/09/03 06:46:27;;;;;;;5.90;5.35;;;14.30;99.90;;;;;;5001536;28;20264;-66
2023/09/03 06:48:54;;;;;;;7.03;5.65;;;14.40;99.90;;;;;;5004419;28;20190;-65
2023/09/03 06:51:21;;;;;;;5.70;5.07;;;14.50;99.90;;;;;;4999550;28;20579;-65
2023/09/03 06:53:49;;;;;;;5.53;4.57;;;14.50;99.90;;;;;;5000181;28;20226;-65
2023/09/03 06:56:16;;;;;;;7.28;5.18;;;14.60;99.90;;;;;;4984071;28;20203;-65
2023/09/03 06:58:43;;;;;;;8.25;5.72;;;14.60;99.90;;;;;;4964272;28;21114;-65
2023/09/03 07:01:10;;;;;;;8.20;5.32;;;14.60;99.90;;;;;;4987629;28;20681;-66
2023/09/03 07:03:36;;;;;;;8.15;5.28;;;14.70;99.90;;;;;;4983528;28;20208;-65
2023/09/03 07:06:03;;;;;;;8.85;5.07;;;14.80;99.90;;;;;;4986411;28;20205;-65
2023/09/03 07:08:30;;;;;;;9.77;5.00;;;14.80;99.90;;;;;;4989465;28;20234;-66
2023/09/03 07:11:01;;;;;;;6.03;4.72;;;14.80;99.90;;;;;;4980392;28;20218;-65
2023/09/03 07:13:28;;;;;;;5.03;4.35;;;14.90;99.90;;;;;;4964329;28;20209;-65
2023/09/03 07:15:54;;;;;;;5.45;4.60;;;14.70;99.90;;;;;;4994206;28;20210;-66
2023/09/03 07:18:21;;;;;;;7.60;4.97;;;15.00;99.90;;;;;;5000412;28;20222;-66
2023/09/03 07:20:48;;;;;;;5.43;4.50;;;15.00;99.90;;;;;;4994715;28;20222;-66
2023/09/03 07:23:15;;;;;;;7.32;5.22;;;15.20;99.90;;;;;;4992310;28;20222;-65
2023/09/03 07:25:42;;;;;;;7.63;4.90;;;16.30;99.90;;;;;;5006665;28;20210;-65
2023/09/03 07:28:10;;;;;;;5.80;5.00;;;15.30;99.90;;;;;;4953592;28;21465;-65
2023/09/03 07:30:39;;;;;;;6.88;4.50;;;15.30;99.90;;;;;;5005050;28;20209;-66
2023/09/03 07:33:06;;;;;;;7.63;5.05;;;15.50;99.90;;;;;;5001021;28;20206;-66
2023/09/03 07:35:33;;;;;;;5.40;4.30;;;15.40;99.90;;;;;;5005038;28;20230;-66
2023/09/03 07:37:59;;;;;;;5.57;5.00;;;15.50;99.90;;;;;;5000689;28;20206;-66
2023/09/03 07:40:27;;;;;;;6.72;4.38;;;15.60;99.90;;;;;;5006813;28;20209;-66
2023/09/03 07:42:54;;;;;;;6.60;4.57;;;15.70;99.90;;;;;;4965732;28;20671;-66
2023/09/03 07:45:22;;;;;;;6.90;4.93;;;15.60;99.90;;;;;;4997696;28;20202;-66
2023/09/03 07:47:49;;;;;;;5.97;4.22;;;15.80;99.90;;;;;;4996926;28;20661;-66
2023/09/03 07:50:16;;;;;;;5.55;4.43;;;15.90;99.90;;;;;;5000031;28;20202;-66
2023/09/03 07:52:43;;;;;;;5.32;4.43;;;15.90;99.90;;;;;;5005634;28;20673;-66
2023/09/03 07:55:10;;;;;;;5.90;4.30;;;16.00;99.90;;;;;;4994775;28;20229;-66
2023/09/03 07:57:37;;;;;;;7.82;4.47;;;16.00;99.90;;;;;;4981081;28;20221;-66
2023/09/03 08:00:04;;;;;;;3.88;3.58;;;16.00;99.90;;;;;;4959427;28;20218;-66
2023/09/03 08:02:32;;;;;;;6.18;4.10;;;16.30;99.90;;;;;;4965263;28;20201;-66
2023/09/03 08:04:59;;;;;;;4.47;3.42;;;16.30;99.90;;;;;;4980595;28;20198;-66
2023/09/03 08:07:26;;;;;;;5.22;3.85;;;16.40;99.90;;;;;;5000676;28;20705;-66
2023/09/03 08:09:53;;;;;;;5.43;4.13;;;16.60;99.90;;;;;;4997001;28;20237;-66
2023/09/03 08:12:20;;;;;;;4.63;3.88;;;16.60;99.90;;;;;;4994673;28;20213;-66
2023/09/03 08:14:48;;;;;;;5.20;3.78;;;16.60;99.90;;;;;;4947659;28;20241;-66
2023/09/03 08:17:15;;;;;;;7.85;4.40;;;17.20;99.90;;;;;;5001853;28;20594;-66
2023/09/03 08:19:43;;;;;;;8.43;3.55;;;16.70;99.90;;;;;;4990419;28;20232;-66
2023/09/03 08:22:10;;;;;;;4.93;3.67;;;16.70;99.90;;;;;;4993425;28;20268;-65
2023/09/03 08:24:37;;;;;;;4.38;3.47;;;16.80;99.90;;;;;;4996481;28;20218;-66
2023/09/03 08:27:04;;;;;;;5.30;3.17;;;16.70;99.90;;;;;;4997960;28;20202;-66
2023/09/03 08:29:31;;;;;;;6.72;3.53;;;16.80;99.90;;;;;;4976496;28;20229;-66
2023/09/03 08:31:57;;;;;;;4.00;2.83;;;16.90;99.90;;;;;;4982863;28;20208;-66
2023/09/03 08:34:24;;;;;;;3.50;3.00;;;16.90;99.90;;;;;;4977157;28;20962;-66
2023/09/03 08:36:52;;;;;;;6.45;3.13;;;17.10;99.90;;;;;;5006468;28;20198;-66
2023/09/03 08:39:19;;;;;;;3.30;3.00;;;16.00;99.90;;;;;;5002603;28;20195;-66
2023/09/03 08:41:47;;;;;;;4.85;3.00;;;17.00;99.90;;;;;;5004820;28;20213;-65
2023/09/03 08:44:26;;;;;;;5.10;2.83;;;17.20;99.90;;;;;;4990237;28;20248;-66
2023/09/03 08:46:59;;;;;;;3.35;2.50;;;17.10;99.90;;;;;;4957428;28;20226;-65
2023/09/03 08:49:29;;;;;;;2.58;2.30;;;17.30;99.90;;;;;;4976301;28;20234;-66
2023/09/03 08:51:58;;;;;;;2.22;2.00;;;17.30;99.90;;;;;;4981862;28;20233;-65
2023/09/03 08:54:25;;;;;;;2.30;2.00;;;17.30;99.90;;;;;;4990066;28;20230;-65
2023/09/03 08:56:52;;;;;;;2.15;1.88;;;17.30;99.90;;;;;;4992626;28;20240;-65
2023/09/03 08:59:19;;;;;;;3.75;2.08;;;17.50;99.90;;;;;;4989244;28;20206;-66
2023/09/03 09:01:49;;;;;;;5.15;2.30;;;17.30;99.90;;;;;;4957151;28;21035;-66
2023/09/03 09:04:16;;;;;;;9.48;3.05;;;17.40;99.90;;;;;;4992653;28;20234;-66
2023/09/03 09:06:46;;;;;;;5.32;2.08;;;17.40;99.90;;;;;;4992133;28;20226;-66
2023/09/03 09:09:15;;;;;;;2.13;1.88;;;17.60;99.90;;;;;;4961244;28;20237;-66
2023/09/03 09:11:46;;;;;;;3.25;1.98;;;17.50;99.90;;;;;;4989668;28;20206;-66
2023/09/03 09:14:22;;;;;;;1.90;1.63;;;17.60;99.90;;;;;;4971405;28;20230;-66
2023/09/03 09:16:49;;;;;;;3.72;1.77;;;17.60;99.90;;;;;;4952630;28;20229;-66
2023/09/03 09:19:17;;;;;;;4.93;1.90;;;17.50;99.90;;;;;;4987083;28;20217;-66
2023/09/03 09:21:44;;;;;;;2.42;2.03;;;17.50;99.90;;;;;;4969236;28;20229;-66
2023/09/03 09:24:11;;;;;;;2.42;1.80;;;17.60;99.90;;;;;;4972896;28;20218;-66
2023/09/03 09:26:39;;;;;;;4.47;2.03;;;18.00;99.90;;;;;;5000216;28;20234;-66
2023/09/03 09:29:06;;;;;;;2.33;2.05;;;17.10;99.90;;;;;;4981822;28;20218;-66
2023/09/03 09:31:34;;;;;;;2.10;1.90;;;17.80;99.90;;;;;;4952196;28;20778;-66
2023/09/03 09:34:09;;;;;;;4.18;1.80;;;17.90;99.90;;;;;;4998230;28;20225;-66
2023/09/03 09:36:36;;;;;;;3.53;1.83;;;17.80;99.90;;;;;;4989042;28;20232;-66
2023/09/03 09:39:07;;;;;;;1.85;1.70;;;17.80;99.90;;;;;;4983473;28;21015;-66
2023/09/03 09:41:37;;;;;;;2.92;1.75;;;;;;;;;;4995145;28;20353;-66
2023/09/03 09:44:11;;;;;;;5.75;2.40;;;17.50;99.90;;;;;;4993637;28;20218;-66
2023/09/03 09:46:38;;;;;;;4.25;2.03;;;17.90;99.90;;;;;;4937249;28;20245;-66
2023/09/03 09:49:07;;;;;;;3.28;1.92;;;17.90;99.90;;;;;;4987832;28;20222;-66
2023/09/03 09:51:34;;;;;;;7.32;1.70;;;17.90;99.90;;;;;;4975341;28;20229;-66
2023/09/03 09:54:02;;;;;;;3.47;1.85;;;17.90;99.90;;;;;;4990179;28;20318;-66
2023/09/03 09:56:30;;;;;;;2.28;1.73;;;17.90;99.90;;;;;;4990860;28;20711;-66
2023/09/03 09:58:58;;;;;;;2.10;1.60;;;17.90;99.90;;;;;;4978521;28;20238;-66
2023/09/03 10:01:27;;;;;;;1.90;1.38;;;17.10;99.90;;;;;;4976548;28;20233;-66
2023/09/03 10:03:54;;;;;;;2.50;1.63;;;18.00;99.90;;;;;;4959560;28;20236;-66
2023/09/03 10:06:23;;;;;;;2.40;1.45;;;18.00;99.90;;;;;;4962757;28;20240;-66
2023/09/03 10:08:52;;;;;;;2.17;1.60;;;18.10;99.90;;;;;;4973259;28;20237;-65
2023/09/03 10:11:20;;;;;;;2.80;1.92;;;18.10;99.90;;;;;;4976255;28;20230;-65
2023/09/03 10:13:48;;;;;;;1.92;1.42;;;18.10;99.90;;;;;;4977243;28;20353;-65
2023/09/03 10:16:21;;;;;;;1.92;1.58;;;18.10;99.90;;;;;;4974750;28;20230;-66
2023/09/03 10:18:50;;;;;;;3.17;1.35;;;18.10;99.90;;;;;;4954591;28;20321;-65
2023/09/03 10:21:20;;;;;;;4.03;1.67;;;18.20;99.90;;;;;;4989362;28;20229;-65
2023/09/03 10:23:50;;;;;;;2.33;1.80;;;18.20;99.90;;;;;;4959900;28;20237;-64
2023/09/03 10:26:22;;;;;;;3.30;1.70;;;18.10;99.90;;;;;;4974512;28;20224;-65
2023/09/03 10:28:54;;;;;;;3.00;1.55;;;18.40;99.90;;;;;;4960468;28;22368;-65
2023/09/03 10:31:23;;;;;;;3.25;1.85;;;18.40;99.90;;;;;;4977280;28;21420;-65
2023/09/03 10:33:51;;;;;;;6.75;1.90;;;18.40;99.90;;;;;;4945900;28;20225;-66
2023/09/03 10:36:20;;;;;;;1.70;1.60;;;18.40;99.90;;;;;;4982931;28;20238;-65
2023/09/03 10:38:48;;;;;;;2.85;1.38;;;18.50;99.90;;;;;;4989017;28;20252;-65
2023/09/03 10:41:19;;;;;;;3.53;1.48;;;18.40;99.90;;;;;;4983528;28;20240;-65
2023/09/03 10:43:47;;;;;;;2.60;1.90;;;18.50;99.90;;;;;;4970371;28;20233;-65
2023/09/03 10:46:14;;;;;;;3.58;1.20;;;18.60;99.90;;;;;;4996308;28;20247;-65
2023/09/03 10:48:41;;;;;;;1.40;1.20;;;18.60;99.90;;;;;;4953191;28;20931;-66
2023/09/03 10:51:09;;;;;;;1.25;1.15;;;18.60;99.90;;;;;;4991687;28;20297;-65
2023/09/03 10:53:38;;;;;;;2.50;1.40;;;18.70;99.90;;;;;;4998989;28;20229;-65
2023/09/03 10:56:13;;;;;;;2.78;1.70;;;18.70;99.90;;;;;;4988617;28;20234;-66
2023/09/03 10:58:54;;;;;;;2.65;1.70;;;18.70;99.90;;;;;;4989297;28;20198;-66
2023/09/03 11:01:22;;;;;;;2.65;1.52;;;18.70;99.90;;;;;;4989909;28;20237;-65
2023/09/03 11:03:52;;;;;;;1.55;1.45;;;18.80;99.90;;;;;;4950256;28;20257;-65
2023/09/03 11:06:21;;;;;;;2.63;1.60;;;18.80;99.90;;;;;;4994368;28;20352;-65
2023/09/03 11:09:10;;;;;;;3.75;1.30;;;18.80;99.90;;;;;;4990364;22;20277;-65
2023/09/03 11:11:38;;;;;;;3.15;1.30;;;18.70;99.90;;;;;;4931614;28;20226;-65
2023/09/03 11:14:06;;;;;;;2.78;1.40;;;18.40;99.90;;;;;;4978522;28;20215;-65
2023/09/03 11:16:34;;;;;;;1.60;1.30;;;18.70;99.90;;;;;;4956165;28;20257;-65
2023/09/03 11:19:03;;;;;;;2.20;1.38;;;18.80;99.90;;;;;;4916348;28;20636;-65
2023/09/03 11:21:32;;;;;;;2.38;1.50;;;19.00;99.90;;;;;;4951241;28;20247;-65
2023/09/03 11:24:00;;;;;;;4.90;1.80;;;19.10;99.90;;;;;;4960941;28;20726;-65
2023/09/03 11:26:27;;;;;;;2.97;1.83;;;19.10;99.90;;;;;;4953281;28;20496;-65
2023/09/03 11:28:54;;;;;;;4.22;1.30;;;;;;;;;;4978743;28;20219;-65
2023/09/03 11:31:21;;;;;;;1.80;1.55;;;19.20;99.90;;;;;;4971491;28;20222;-65
2023/09/03 11:33:48;;;;;;;1.60;1.40;;;19.10;99.90;;;;;;4966287;28;21182;-65
2023/09/03 11:36:15;;;;;;;2.00;1.55;;;19.10;99.90;;;;;;4947755;28;20234;-65
2023/09/03 11:38:43;;;;;;;2.10;1.65;;;19.00;99.90;;;;;;4979265;28;20198;-65
2023/09/03 11:41:10;;;;;;;2.08;1.45;;;18.80;99.90;;;;;;4974511;28;20229;-65
2023/09/03 11:43:39;;;;;;;2.28;1.58;;;19.00;99.90;;;;;;4964522;28;20222;-65
2023/09/03 11:46:13;;;;;;;2.97;1.50;;;19.00;99.90;;;;;;4966201;28;20768;-65
2023/09/03 11:48:40;;;;;;;1.50;1.40;;;19.10;99.90;;;;;;4959299;28;20233;-64
2023/09/03 11:51:08;;;;;;;1.73;1.25;;;19.10;99.90;;;;;;4946306;28;20206;-65
2023/09/03 11:53:47;;;;;;;4.50;1.38;;;19.30;99.90;;;;;;4977299;28;20218;-65
2023/09/03 11:56:16;;;;;;;2.92;1.25;;;19.30;99.90;;;;;;4947450;28;20330;-65
2023/09/03 11:58:45;;;;;;;2.72;1.52;;;19.30;99.90;;;;;;4960251;28;20312;-65
2023/09/03 12:01:14;;;;;;;1.42;1.33;;;19.40;99.90;;;;;;4960786;28;20222;-65
2023/09/03 12:03:41;;;;;;;1.85;1.50;;;19.50;99.90;;;;;;4960255;28;20226;-65
2023/09/03 12:06:08;;;;;;;1.52;1.40;;;19.40;99.90;;;;;;4966274;28;20669;-65
2023/09/03 12:08:35;;;;;;;3.53;1.42;;;19.40;99.90;;;;;;4926597;28;20226;-65
2023/09/03 12:11:03;;;;;;;2.42;1.27;;;18.70;99.90;;;;;;4971045;28;20219;-65
2023/09/03 12:13:31;;;;;;;2.30;1.38;;;19.30;99.90;;;;;;4966577;28;20229;-65
2023/09/03 12:16:09;;;;;;;1.20;1.10;;;19.30;99.90;;;;;;4959860;28;20231;-65
2023/09/03 12:18:36;;;;;;;1.35;1.25;;;19.50;99.90;;;;;;4959613;28;20231;-65
2023/09/03 12:21:05;;;;;;;1.48;1.17;;;19.40;99.90;;;;;;4969812;28;20215;-66
2023/09/03 12:23:34;;;;;;;3.10;1.42;;;19.50;99.90;;;;;;4941354;28;20651;-66
2023/09/03 12:26:03;;;;;;;3.20;1.42;;;19.50;99.90;;;;;;4974775;28;20214;-65
2023/09/03 12:28:35;;;;;;;1.77;1.30;;;19.40;99.90;;;;;;4968405;28;20311;-65
2023/09/03 12:31:03;;;;;;;2.67;1.52;;;19.40;99.90;;;;;;4963629;28;21186;-66
2023/09/03 12:33:49;;;;;;;1.77;1.13;;;19.30;99.90;;;;;;4972632;28;20232;-65
2023/09/03 12:36:17;;;;;;;1.70;1.10;;;19.40;99.90;;;;;;4973277;28;20235;-65
2023/09/03 12:38:55;;;;;;;2.58;1.60;;;19.50;99.90;;;;;;4938616;28;20237;-66
2023/09/03 12:41:24;;;;;;;1.73;1.20;;;19.50;99.90;;;;;;4959654;28;20262;-65
2023/09/03 12:43:52;;;;;;;1.20;1.10;;;19.70;99.90;;;;;;4963172;28;20222;-63
2023/09/03 12:46:18;;;;;;;0.85;0.85;;;19.60;99.90;;;;;;4971448;28;20319;-66
2023/09/03 12:48:46;;;;;;;1.23;1.13;;;19.80;99.90;;;;;;4965304;28;20228;-66
2023/09/03 12:51:15;;;;;;;1.88;1.23;;;19.80;99.90;;;;;;4972653;28;20227;-65
2023/09/03 12:53:42;;;;;;;1.90;1.17;;;19.90;99.90;;;;;;4943089;28;20223;-65